Time;durP1;ratioP1;P1;durP2;ratioP2;P2;SDS_P1;SDS_P2;PMS_P1;PMS_P2;Temp;Humidity;BMP_temperature;BMP_pressure;BME280_temperature;BME280_humidity;BME280_pressure;Samples;Min_cycle;Max_cycle;Signal;HPM_P1;HPM_P2
2022/09/28 00:00:20;;;;;;;;;;;;;;;;;;5032109;28;19913;-59
2022/09/28 00:02:45;;;;;;;;;;;;;;;;;;5033765;28;19917;-59
2022/09/28 00:05:11;;;;;;;;;;;;;;;;;;5031630;28;20008;-59
2022/09/28 00:07:37;;;;;;;;;;;;;;;;;;5033028;28;20367;-58
2022/09/28 00:10:02;;;;;;;;;;;;;;;;;;5035124;28;19923;-58
2022/09/28 00:12:28;;;;;;;;;;;;;;;;;;5033785;28;19921;-58
2022/09/28 00:14:54;;;;;;;;;;;;;;;;;;5035324;28;19932;-58
2022/09/28 00:17:21;;;;;;;;;;;;;;;;;;5035714;28;19934;-58
2022/09/28 00:19:47;;;;;;;;;;;;;;;;;;5031528;28;19917;-58
2022/09/28 00:22:12;;;;;;;;;;;;;;;;;;5032652;28;20287;-59
2022/09/28 00:24:37;;;;;;;;;;;;;;;;;;5032929;28;20342;-59
2022/09/28 00:27:03;;;;;;;;;;;;;;;;;;5034641;28;19924;-59
2022/09/28 00:29:28;;;;;;;;;;;;;;;;;;5033559;28;20066;-58
2022/09/28 00:31:58;;;;;;;;;;;;;;;;;;5030517;28;20340;-58
2022/09/28 00:34:24;;;;;;;;;;;;;;;;;;5033263;28;19962;-58
2022/09/28 00:36:49;;;;;;;;;;;;;;;;;;5030244;28;19912;-58
2022/09/28 00:39:15;;;;;;;;;;;;;;;;;;5029539;28;20287;-59
2022/09/28 00:41:40;;;;;;;;;;;;;;;;;;5033738;28;20367;-59
2022/09/28 00:44:21;;;;;;;;;;;;;;;;;;5033178;28;19917;-59
2022/09/28 00:46:47;;;;;;;;;;;;;;;;;;5030761;28;19920;-59
2022/09/28 00:49:14;;;;;;;;;;;;;;;;;;5035612;28;20390;-59
2022/09/28 00:51:40;;;;;;;;;;;;;;;;;;5029942;28;19913;-59
2022/09/28 00:54:06;;;;;;;;;;;;;;;;;;5030150;28;19913;-59
2022/09/28 00:56:34;;;;;;;;;;;;;;;;;;5030319;28;20271;-60
2022/09/28 00:59:00;;;;;;;;;;;;;;;;;;5035781;28;20350;-59
2022/09/28 01:01:26;;;;;;;;;;;;;;;;;;5030989;28;19971;-59
2022/09/28 01:03:52;;;;;;;;;;;;;;;;;;5031858;28;19921;-59
2022/09/28 01:06:21;;;;;;;;;;;;;;;;;;5034507;28;20267;-61
2022/09/28 01:08:49;;;;;;;;;;;;;;;;;;5031619;28;19916;-59
2022/09/28 01:11:15;;;;;;;;;;;;;;;;;;5029979;28;19913;-59
2022/09/28 01:13:40;;;;;;;;;;;;;;;;;;5033319;28;19919;-59
2022/09/28 01:16:17;;;;;;;;;;;;;;;;;;5028998;28;19958;-59
2022/09/28 01:18:48;;;;;;;;;;;;;;;;;;5028556;28;19967;-59
2022/09/28 01:21:16;;;;;;;;;;;;;;;;;;5030562;28;19991;-58
2022/09/28 01:23:47;;;;;;;;;;;;;;;;;;5030398;28;19913;-58
2022/09/28 01:26:16;;;;;;;;;;;;;;;;;;5025382;28;19991;-59
2022/09/28 01:28:42;;;;;;;;;;;;;;;;;;5059644;28;20306;-59
2022/09/28 01:31:12;;;;;;;;;;;;;;;;;;5030890;28;19917;-59
2022/09/28 01:33:37;;;;;;;;;;;;;;;;;;5029496;28;19916;-59
2022/09/28 01:36:02;;;;;;;;;;;;;;;;;;5027731;28;19920;-58
2022/09/28 01:38:30;;;;;;;;;;;;;;;;;;5030654;28;19913;-58
2022/09/28 01:40:58;;;;;;;;;;;;;;;;;;5034852;28;19920;-59
2022/09/28 01:43:25;;;;;;;;;;;;;;;;;;5032781;28;19998;-59
2022/09/28 01:45:57;;;;;;;;;;;;;;;;;;5026470;28;20368;-58
2022/09/28 01:48:26;;;;;;;;;;;;;;;;;;5030811;28;19925;-58
2022/09/28 01:50:53;;;;;;;;;;;;;;;;;;5029118;28;20104;-59
2022/09/28 01:53:25;;;;;;;;;;;;;;;;;;5028765;28;20018;-59
2022/09/28 01:55:54;;;;;;;;;;;;;;;;;;5032563;28;19920;-59
2022/09/28 01:58:38;;;;;;;;;;;;;;;;;;5033945;28;19916;-58
2022/09/28 02:01:18;;;;;;;;;;;;;;;;;;5029269;28;20382;-59
2022/09/28 02:03:48;;;;;;;;;;;;;;;;;;5029244;28;19919;-58
2022/09/28 02:06:18;;;;;;;;;;;;;;;;;;5035354;28;19947;-59
2022/09/28 02:08:52;;;;;;;;;;;;;;;;;;5034309;28;19999;-59
2022/09/28 02:11:21;;;;;;;;;;;;;;;;;;5028705;28;20012;-59
2022/09/28 02:13:53;;;;;;;;;;;;;;;;;;5030869;28;20286;-58
2022/09/28 02:16:18;;;;;;;;;;;;;;;;;;5031089;28;20271;-59
2022/09/28 02:18:44;;;;;;;;;;;;;;;;;;5034768;28;19913;-58
2022/09/28 02:21:15;;;;;;;;;;;;;;;;;;5032799;28;19912;-58
2022/09/28 02:23:42;;;;;;;;;;;;;;;;;;5028660;28;19982;-58
2022/09/28 02:26:09;;;;;;;;;;;;;;;;;;5030785;28;19919;-58
2022/09/28 02:28:34;;;;;;;;;;;;;;;;;;5031655;28;19913;-58
2022/09/28 02:31:00;;;;;;;;;;;;;;;;;;5034132;28;19913;-58
2022/09/28 02:33:30;;;;;;;;;;;;;;;;;;5027730;28;20020;-58
2022/09/28 02:35:57;;;;;;;;;;;;;;;;;;5028660;28;19913;-58
2022/09/28 02:38:22;;;;;;;;;;;;;;;;;;5030231;28;19925;-59
2022/09/28 02:41:02;;;;;;;;;;;;;;;;;;5028580;28;19967;-58
2022/09/28 02:43:38;;;;;;;;;;;;;;;;;;5029230;28;19967;-58
2022/09/28 02:46:03;;;;;;;;;;;;;;;;;;5031505;28;19913;-58
2022/09/28 02:48:38;;;;;;;;;;;;;;;;;;5030219;28;19978;-59
2022/09/28 02:51:03;;;;;;;;;;;;;;;;;;5028921;28;19932;-59
2022/09/28 02:53:31;;;;;;;;;;;;;;;;;;5028189;28;19943;-60
2022/09/28 02:56:09;;;;;;;;;;;;;;;;;;5028339;28;20299;-58
2022/09/28 02:58:40;;;;;;;;;;;;;;;;;;5028397;28;19921;-58
2022/09/28 03:01:15;;;;;;;;;;;;;;;;;;5036531;28;20309;-58
2022/09/28 03:03:54;;;;;;;;;;;;;;;;;;5027903;28;20357;-58
2022/09/28 03:06:29;;;;;;;;;;;;;;;;;;5026141;28;19920;-58
2022/09/28 03:09:27;;;;;;;;;;;;;;;;;;5029923;28;19952;-58
2022/09/28 03:11:54;;;;;;;;;;;;;;;;;;5022430;28;20338;-58
2022/09/28 03:14:20;;;;;;;;;;;;;;;;;;5028374;28;19971;-58
2022/09/28 03:16:45;;;;;;;;;;;;;;;;;;5032340;28;20188;-58
2022/09/28 03:19:11;;;;;;;;;;;;;;;;;;5030903;28;19912;-58
2022/09/28 03:21:37;;;;;;;;;;;;;;;;;;5036269;28;19920;-59
2022/09/28 03:24:04;;;;;;;;;;;;;;;;;;5033542;28;19913;-59
2022/09/28 03:26:29;;;;;;;;;;;;;;;;;;5033179;28;19921;-59
2022/09/28 03:28:54;;;;;;;;;;;;;;;;;;5028716;28;19913;-60
2022/09/28 03:31:20;;;;;;;;;;;;;;;;;;5029599;28;20011;-59
2022/09/28 03:33:45;;;;;;;;;;;;;;;;;;5028502;28;19935;-59
2022/09/28 03:36:10;;;;;;;;;;;;;;;;;;5032475;28;19921;-60
2022/09/28 03:38:35;;;;;;;;;;;;;;;;;;5029657;28;20128;-60
2022/09/28 03:41:01;;;;;;;;;;;;;;;;;;5028245;28;19913;-60
2022/09/28 03:43:26;;;;;;;;;;;;;;;;;;5029370;28;19995;-60
2022/09/28 03:45:55;;;;;;;;;;;;;;;;;;5026406;28;19924;-60
2022/09/28 03:48:22;;;;;;;;;;;;;;;;;;5028795;28;19917;-60
2022/09/28 03:50:47;;;;;;;;;;;;;;;;;;5028987;28;20087;-61
2022/09/28 03:53:12;;;;;;;;;;;;;;;;;;5032067;28;19913;-60
2022/09/28 03:55:37;;;;;;;;;;;;;;;;;;5032460;28;19928;-60
2022/09/28 03:58:03;;;;;;;;;;;;;;;;;;5032950;28;19956;-61
2022/09/28 04:00:28;;;;;;;;;;;;;;;;;;5032199;28;20337;-60
2022/09/28 04:02:54;;;;;;;;;;;;;;;;;;5030504;28;19927;-60
2022/09/28 04:05:19;;;;;;;;;;;;;;;;;;5030868;28;19913;-60
2022/09/28 04:07:45;;;;;;;;;;;;;;;;;;5032614;28;19979;-60
2022/09/28 04:10:10;;;;;;;;;;;;;;;;;;5034547;28;19917;-60
2022/09/28 04:12:36;;;;;;;;;;;;;;;;;;5030638;28;19924;-59
2022/09/28 04:15:01;;;;;;;;;;;;;;;;;;5038220;28;19913;-60
2022/09/28 04:17:26;;;;;;;;;;;;;;;;;;5030059;28;19986;-60
2022/09/28 04:19:51;;;;;;;;;;;;;;;;;;5030722;28;19921;-60
2022/09/28 04:22:17;;;;;;;;;;;;;;;;;;5031420;28;19917;-60
2022/09/28 04:24:42;;;;;;;;;;;;;;;;;;5032632;28;20345;-60
2022/09/28 04:29:51;;;;;;;;;;;;;;;;;;5032726;28;19955;-60
2022/09/28 04:32:16;;;;;;;;;;;;;;;;;;5037158;28;20351;-60
2022/09/28 04:34:41;;;;;;;;;;;;;;;;;;5032735;28;19916;-60
2022/09/28 04:37:07;;;;;;;;;;;;;;;;;;5031394;28;20008;-60
2022/09/28 04:39:32;;;;;;;;;;;;;;;;;;5032681;28;19920;-60
2022/09/28 04:41:57;;;;;;;;;;;;;;;;;;5032513;28;19959;-59
2022/09/28 04:44:22;;;;;;;;;;;;;;;;;;5035340;28;19920;-59
2022/09/28 04:46:48;;;;;;;;;;;;;;;;;;5028831;28;19917;-60
2022/09/28 04:49:13;;;;;;;;;;;;;;;;;;5032481;28;19917;-59
2022/09/28 04:51:38;;;;;;;;;;;;;;;;;;5029775;28;19917;-59
2022/09/28 04:54:03;;;;;;;;;;;;;;;;;;5030606;28;19921;-59
2022/09/28 04:56:29;;;;;;;;;;;;;;;;;;5031558;28;20424;-59
2022/09/28 04:58:54;;;;;;;;;;;;;;;;;;5031993;28;19913;-59
2022/09/28 05:01:22;;;;;;;;;;;;;;;;;;5031208;28;19913;-59
2022/09/28 05:03:47;;;;;;;;;;;;;;;;;;5033743;28;20091;-63
2022/09/28 05:06:16;;;;;;;;;;;;;;;;;;5032065;28;19913;-63
2022/09/28 05:08:42;;;;;;;;;;;;;;;;;;5030260;28;19928;-62
2022/09/28 05:11:09;;;;;;;;;;;;;;;;;;5032855;28;19913;-63
2022/09/28 05:13:40;;;;;;;;;;;;;;;;;;5035215;28;19936;-63
2022/09/28 05:16:05;;;;;;;;;;;;;;;;;;5033112;28;19917;-63
2022/09/28 05:18:31;;;;;;;;;;;;;;;;;;5034815;28;19921;-63
2022/09/28 05:20:56;;;;;;;;;;;;;;;;;;5031146;28;20321;-62
2022/09/28 05:23:21;;;;;;;;;;;;;;;;;;5033518;28;19923;-63
2022/09/28 05:25:47;;;;;;;;;;;;;;;;;;5034111;28;19917;-62
2022/09/28 05:28:12;;;;;;;;;;;;;;;;;;5031282;28;19917;-62
2022/09/28 05:30:37;;;;;;;;;;;;;;;;;;5031169;28;19913;-63
2022/09/28 05:33:03;;;;;;;;;;;;;;;;;;5031436;28;19913;-63
2022/09/28 05:35:28;;;;;;;;;;;;;;;;;;5030378;28;20297;-62
2022/09/28 05:37:54;;;;;;;;;;;;;;;;;;5028250;28;19921;-62
2022/09/28 05:40:19;;;;;;;;;;;;;;;;;;5031067;28;19913;-63
2022/09/28 05:42:44;;;;;;;;;;;;;;;;;;5029643;28;19964;-62
2022/09/28 05:45:10;;;;;;;;;;;;;;;;;;5032446;28;19912;-62
2022/09/28 05:47:42;;;;;;;;;;;;;;;;;;5029321;28;19921;-62
2022/09/28 05:50:10;;;;;;;;;;;;;;;;;;5028613;28;19917;-63
2022/09/28 05:52:35;;;;;;;;;;;;;;;;;;5030877;28;20313;-62
2022/09/28 05:55:01;;;;;;;;;;;;;;;;;;5030266;28;19913;-62
2022/09/28 05:57:26;;;;;;;;;;;;;;;;;;5028922;28;19916;-63
2022/09/28 05:59:52;;;;;;;;;;;;;;;;;;5032249;28;19976;-63
2022/09/28 06:02:17;;;;;;;;;;;;;;;;;;5031221;28;20014;-64
2022/09/28 06:04:42;;;;;;;;;;;;;;;;;;5031392;28;20401;-62
2022/09/28 06:07:07;;;;;;;;;;;;;;;;;;5031566;28;19924;-62
2022/09/28 06:09:33;;;;;;;;;;;;;;;;;;5031628;28;19920;-62
2022/09/28 06:11:58;;;;;;;;;;;;;;;;;;5031042;28;19920;-62
2022/09/28 06:14:24;;;;;;;;;;;;;;;;;;5030119;28;20052;-63
2022/09/28 06:16:49;;;;;;;;;;;;;;;;;;5032261;28;20367;-63
2022/09/28 06:19:14;;;;;;;;;;;;;;;;;;5028407;28;20171;-62
2022/09/28 06:21:39;;;;;;;;;;;;;;;;;;5029144;28;19920;-62
2022/09/28 06:24:05;;;;;;;;;;;;;;;;;;5030967;28;19972;-62
2022/09/28 06:26:30;;;;;;;;;;;;;;;;;;5033340;28;20414;-62
2022/09/28 06:28:55;;;;;;;;;;;;;;;;;;5029698;28;19923;-62
2022/09/28 06:31:23;;;;;;;;;;;;;;;;;;5030607;28;20363;-62
2022/09/28 06:33:48;;;;;;;;;;;;;;;;;;5031368;28;19913;-62
2022/09/28 06:36:14;;;;;;;;;;;;;;;;;;5030301;28;20037;-63
2022/09/28 06:38:39;;;;;;;;;;;;;;;;;;5032639;28;19932;-62
2022/09/28 06:41:05;;;;;;;;;;;;;;;;;;5032904;28;19919;-62
2022/09/28 06:43:30;;;;;;;;;;;;;;;;;;5032217;28;19913;-62
2022/09/28 06:45:55;;;;;;;;;;;;;;;;;;5027325;28;19932;-62
2022/09/28 06:48:21;;;;;;;;;;;;;;;;;;5032261;28;19970;-62
2022/09/28 06:50:46;;;;;;;;;;;;;;;;;;5029864;28;19940;-62
2022/09/28 06:53:13;;;;;;;;;;;;;;;;;;5027737;28;19920;-62
2022/09/28 06:55:39;;;;;;;;;;;;;;;;;;5030814;28;19967;-62
2022/09/28 06:58:06;;;;;;;;;;;;;;;;;;5029455;28;20018;-62
2022/09/28 07:00:32;;;;;;;;;;;;;;;;;;5027609;28;19913;-62
2022/09/28 07:02:58;;;;;;;;;;;;;;;;;;5028543;28;20367;-62
2022/09/28 07:05:26;;;;;;;;;;;;;;;;;;5030370;28;19928;-62
2022/09/28 07:07:54;;;;;;;;;;;;;;;;;;5033332;28;20195;-63
2022/09/28 07:10:19;;;;;;;;;;;;;;;;;;5029887;28;19913;-62
2022/09/28 07:12:45;;;;;;;;;;;;;;;;;;5031102;28;19920;-61
2022/09/28 07:15:11;;;;;;;;;;;;;;;;;;5028727;28;20298;-62
2022/09/28 07:17:36;;;;;;;;;;;;;;;;;;5033679;28;19920;-61
2022/09/28 07:20:02;;;;;;;;;;;;;;;;;;5028380;28;20326;-62
2022/09/28 07:22:27;;;;;;;;;;;;;;;;;;5030657;28;19920;-61
2022/09/28 07:24:52;;;;;;;;;;;;;;;;;;5028649;28;19913;-61
2022/09/28 07:27:18;;;;;;;;;;;;;;;;;;5033654;28;19921;-61
2022/09/28 07:29:44;;;;;;;;;;;;;;;;;;5033887;28;19996;-61
2022/09/28 07:32:09;;;;;;;;;;;;;;;;;;5030994;28;19995;-61
2022/09/28 07:34:42;;;;;;;;;;;;;;;;;;5033862;28;19928;-60
2022/09/28 07:37:09;;;;;;;;;;;;;;;;;;5030797;28;20356;-61
2022/09/28 07:41:10;;;;;;;;;;;;;;;;;;5032675;28;19913;-61
2022/09/28 07:42:20;;;;;;;;;;;;;;;;;;5033425;28;19920;-60
2022/09/28 07:44:46;;;;;;;;;;;;;;;;;;5032375;28;19917;-60
2022/09/28 07:47:11;;;;;;;;;;;;;;;;;;5031812;28;19924;-60
2022/09/28 07:49:36;;;;;;;;;;;;;;;;;;5017273;28;19928;-60
2022/09/28 07:52:02;;;;;;;;;;;;;;;;;;5029919;28;19916;-60
2022/09/28 07:54:27;;;;;;;;;;;;;;;;;;5031788;28;19920;-60
2022/09/28 07:56:52;;;;;;;;;;;;;;;;;;5033130;28;20004;-60
2022/09/28 07:59:18;;;;;;;;;;;;;;;;;;5027140;28;20334;-60
2022/09/28 08:01:43;;;;;;;;;;;;;;;;;;5032506;28;19963;-62
2022/09/28 08:04:08;;;;;;;;;;;;;;;;;;5033051;28;19921;-60
2022/09/28 08:06:33;;;;;;;;;;;;;;;;;;5037316;28;20268;-60
2022/09/28 08:09:00;;;;;;;;;;;;;;;;;;5033982;28;19920;-60
2022/09/28 08:11:25;;;;;;;;;;;;;;;;;;5037169;28;20280;-60
2022/09/28 08:13:54;;;;;;;;;;;;;;;;;;5031792;28;19933;-60
2022/09/28 08:16:19;;;;;;;;;;;;;;;;;;5029623;28;19912;-59
2022/09/28 08:18:47;;;;;;;;;;;;;;;;;;5031120;28;19913;-60
2022/09/28 08:23:56;;;;;;;;;;;;;;;;;;5032179;28;19919;-61
2022/09/28 08:26:21;;;;;;;;;;;;;;;;;;5037130;28;20302;-60
2022/09/28 08:28:46;;;;;;;;;;;;;;;;;;5035785;28;19967;-61
2022/09/28 08:31:12;;;;;;;;;;;;;;;;;;5026344;28;19913;-60
2022/09/28 08:33:37;;;;;;;;;;;;;;;;;;5033839;28;19912;-61
2022/09/28 08:36:03;;;;;;;;;;;;;;;;;;5038422;28;19952;-61
2022/09/28 08:38:29;;;;;;;;;;;;;;;;;;5034465;28;19917;-61
2022/09/28 08:41:24;;;;;;;;;;;;;;;;;;5031025;28;19913;-61
2022/09/28 08:43:58;;;;;;;;;;;;;;;;;;5025437;28;19919;-61
2022/09/28 08:46:25;;;;;;;;;;;;;;;;;;5031005;28;19913;-61
2022/09/28 08:49:11;;;;;;;;;;;;;;;;;;5031691;28;19920;-61
2022/09/28 08:51:57;;;;;;;;;;;;;;;;;;5029697;28;19952;-61
2022/09/28 08:54:42;;;;;;;;;;;;;;;;;;5030960;28;19955;-61
2022/09/28 08:57:12;;;;;;;;;;;;;;;;;;5030038;28;20428;-61
2022/09/28 08:59:40;;;;;;;;;;;;;;;;;;5029004;28;19928;-61
2022/09/28 09:02:11;;;;;;;;;;;;;;;;;;5030272;28;20462;-60
2022/09/28 09:04:36;;;;;;;;;;;;;;;;;;5030204;28;19913;-60
2022/09/28 09:07:04;;;;;;;;;;;;;;;;;;5032729;28;20282;-60
2022/09/28 09:09:35;;;;;;;;;;;;;;;;;;5038213;28;20000;-61
2022/09/28 09:12:13;;;;;;;;;;;;;;;;;;5035725;28;19920;-60
2022/09/28 09:14:47;;;;;;;;;;;;;;;;;;5031766;28;20374;-61
2022/09/28 09:17:27;;;;;;;;;;;;;;;;;;5032942;28;19913;-60
2022/09/28 09:19:54;;;;;;;;;;;;;;;;;;5029497;28;19917;-60
2022/09/28 09:22:19;;;;;;;;;;;;;;;;;;5034228;28;20152;-61
2022/09/28 09:24:54;;;;;;;;;;;;;;;;;;5030042;28;20290;-60
2022/09/28 09:27:19;;;;;;;;;;;;;;;;;;5030796;28;20357;-60
2022/09/28 09:30:01;;;;;;;;;;;;;;;;;;5028373;28;19913;-60
2022/09/28 09:32:45;;;;;;;;;;;;;;;;;;5030448;28;19925;-60
2022/09/28 09:35:20;;;;;;;;;;;;;;;;;;5028878;28;19913;-60
2022/09/28 09:37:48;;;;;;;;;;;;;;;;;;5030840;28;19917;-59
2022/09/28 09:40:20;;;;;;;;;;;;;;;;;;5032025;28;19913;-60
2022/09/28 09:43:05;;;;;;;;;;;;;;;;;;5030169;28;19913;-60
2022/09/28 09:45:38;;;;;;;;;;;;;;;;;;5027166;28;20374;-60
2022/09/28 09:48:09;;;;;;;;;;;;;;;;;;5029086;28;19971;-60
2022/09/28 09:50:38;;;;;;;;;;;;;;;;;;5031112;28;19967;-59
2022/09/28 09:53:22;;;;;;;;;;;;;;;;;;5030169;28;20286;-60
2022/09/28 09:55:50;;;;;;;;;;;;;;;;;;5028808;28;20264;-60
2022/09/28 09:58:17;;;;;;;;;;;;;;;;;;5030111;28;19916;-59
2022/09/28 10:00:44;;;;;;;;;;;;;;;;;;5030246;28;19912;-60
2022/09/28 10:03:18;;;;;;;;;;;;;;;;;;5029019;28;19913;-60
2022/09/28 10:05:47;;;;;;;;;;;;;;;;;;5028077;28;19967;-59
2022/09/28 10:08:18;;;;;;;;;;;;;;;;;;5031885;28;20356;-60
2022/09/28 10:11:07;;;;;;;;;;;;;;;;;;5030613;28;19912;-59
2022/09/28 10:13:32;;;;;;;;;;;;;;;;;;5025185;28;20378;-60
2022/09/28 10:15:58;;;;;;;;;;;;;;;;;;5030354;28;19913;-59
2022/09/28 10:18:24;;;;;;;;;;;;;;;;;;5032001;28;19913;-59
2022/09/28 10:20:49;;;;;;;;;;;;;;;;;;5031344;28;19928;-60
2022/09/28 10:23:23;;;;;;;;;;;;;;;;;;5033233;28;20284;-60
2022/09/28 10:25:50;;;;;;;;;;;;;;;;;;5033452;28;19920;-60
2022/09/28 10:28:20;;;;;;;;;;;;;;;;;;5031946;28;20383;-60
2022/09/28 10:30:45;;;;;;;;;;;;;;;;;;5030906;28;19916;-56
2022/09/28 10:33:27;;;;;;;;;;;;;;;;;;5030710;28;20337;-61
2022/09/28 10:35:53;;;;;;;;;;;;;;;;;;5028694;28;19913;-60
2022/09/28 10:38:18;;;;;;;;;;;;;;;;;;5035349;28;20352;-60
2022/09/28 10:40:43;;;;;;;;;;;;;;;;;;5033071;28;19913;-60
2022/09/28 10:43:27;;;;;;;;;;;;;;;;;;5026737;28;20173;-60
2022/09/28 10:46:04;;;;;;;;;;;;;;;;;;5029145;28;19912;-60
2022/09/28 10:48:32;;;;;;;;;;;;;;;;;;5029719;28;19924;-60
2022/09/28 10:51:06;;;;;;;;;;;;;;;;;;5029716;28;20089;-60
2022/09/28 10:53:32;;;;;;;;;;;;;;;;;;5028852;28;19920;-60
2022/09/28 10:56:01;;;;;;;;;;;;;;;;;;5030186;28;19913;-60
2022/09/28 10:58:47;;;;;;;;;;;;;;;;;;5031281;28;19971;-60
2022/09/28 11:01:15;;;;;;;;;;;;;;;;;;5028276;28;19917;-60
2022/09/28 11:04:00;;;;;;;;;;;;;;;;;;5033245;28;20681;-60
2022/09/28 11:06:30;;;;;;;;;;;;;;;;;;5034373;28;20259;-60
2022/09/28 11:08:56;;;;;;;;;;;;;;;;;;5038377;28;20024;-60
2022/09/28 11:11:22;;;;;;;;;;;;;;;;;;5035414;28;19928;-60
2022/09/28 11:13:52;;;;;;;;;;;;;;;;;;5035830;28;19924;-60
2022/09/28 11:16:22;;;;;;;;;;;;;;;;;;5035123;28;19916;-60
2022/09/28 11:18:47;;;;;;;;;;;;;;;;;;5033869;28;19921;-60
2022/09/28 11:21:14;;;;;;;;;;;;;;;;;;5039940;28;19919;-60
2022/09/28 11:23:41;;;;;;;;;;;;;;;;;;5037430;28;20011;-60
2022/09/28 11:26:06;;;;;;;;;;;;;;;;;;5036653;28;19913;-61
2022/09/28 11:28:34;;;;;;;;;;;;;;;;;;5036486;28;20319;-60
2022/09/28 11:31:00;;;;;;;;;;;;;;;;;;5031531;28;19917;-61
2022/09/28 11:33:28;;;;;;;;;;;;;;;;;;5030701;28;20275;-60
2022/09/28 11:36:03;;;;;;;;;;;;;;;;;;5030561;28;19921;-59
2022/09/28 11:38:49;;;;;;;;;;;;;;;;;;5031997;28;20378;-61
2022/09/28 11:41:20;;;;;;;;;;;;;;;;;;5027450;28;19913;-61
2022/09/28 11:43:50;;;;;;;;;;;;;;;;;;5031200;28;19993;-61
2022/09/28 11:46:29;;;;;;;;;;;;;;;;;;5030383;28;19920;-61
2022/09/28 11:48:58;;;;;;;;;;;;;;;;;;5032703;28;20609;-61
2022/09/28 11:51:30;;;;;;;;;;;;;;;;;;5031730;28;20336;-60
2022/09/28 11:54:13;;;;;;;;;;;;;;;;;;5032480;28;19919;-60
2022/09/28 11:56:44;;;;;;;;;;;;;;;;;;5033689;28;19920;-61
2022/09/28 11:59:11;;;;;;;;;;;;;;;;;;5030494;28;19920;-60
2022/09/28 12:01:42;;;;;;;;;;;;;;;;;;5031853;28;20311;-61
2022/09/28 12:04:17;;;;;;;;;;;;;;;;;;5031782;28;19920;-61
2022/09/28 12:06:48;;;;;;;;;;;;;;;;;;5037686;28;21100;-61
2022/09/28 12:09:17;;;;;;;;;;;;;;;;;;5033663;28;20401;-60
2022/09/28 12:11:44;;;;;;;;;;;;;;;;;;5031228;28;19920;-61
2022/09/28 12:14:13;;;;;;;;;;;;;;;;;;5030358;28;19927;-61
2022/09/28 12:16:43;;;;;;;;;;;;;;;;;;5034982;28;19913;-61
2022/09/28 12:19:11;;;;;;;;;;;;;;;;;;5033094;28;19932;-61
2022/09/28 12:21:41;;;;;;;;;;;;;;;;;;5048200;28;19917;-61
2022/09/28 12:24:15;;;;;;;;;;;;;;;;;;5034881;28;19917;-61
2022/09/28 12:26:44;;;;;;;;;;;;;;;;;;5029887;28;19996;-59
2022/09/28 12:29:15;;;;;;;;;;;;;;;;;;5032617;28;19935;-59
2022/09/28 12:31:56;;;;;;;;;;;;;;;;;;5035208;28;19921;-60
2022/09/28 12:34:21;;;;;;;;;;;;;;;;;;5028534;28;19936;-60
2022/09/28 12:36:46;;;;;;;;;;;;;;;;;;5029421;28;20357;-60
2022/09/28 12:39:17;;;;;;;;;;;;;;;;;;5029540;28;19912;-60
2022/09/28 12:41:49;;;;;;;;;;;;;;;;;;5027094;28;20026;-60
2022/09/28 12:44:16;;;;;;;;;;;;;;;;;;5028986;28;19921;-60
2022/09/28 12:47:04;;;;;;;;;;;;;;;;;;5026876;28;19913;-60
2022/09/28 12:49:29;;;;;;;;;;;;;;;;;;5031330;28;20397;-60
2022/09/28 12:51:59;;;;;;;;;;;;;;;;;;5029953;28;19913;-60
2022/09/28 12:54:43;;;;;;;;;;;;;;;;;;5033340;28;19925;-60
2022/09/28 12:57:27;;;;;;;;;;;;;;;;;;5030759;28;19917;-60
2022/09/28 13:00:05;;;;;;;;;;;;;;;;;;5028799;28;19921;-61
2022/09/28 13:02:44;;;;;;;;;;;;;;;;;;5025820;28;19952;-60
2022/09/28 13:05:28;;;;;;;;;;;;;;;;;;5029184;28;19920;-59
2022/09/28 13:08:06;;;;;;;;;;;;;;;;;;5031873;28;19931;-60
2022/09/28 13:10:49;;;;;;;;;;;;;;;;;;5029068;28;19995;-60
2022/09/28 13:13:26;;;;;;;;;;;;;;;;;;5031215;28;19967;-60
2022/09/28 13:15:51;;;;;;;;;;;;;;;;;;5033253;28;19918;-60
2022/09/28 13:18:35;;;;;;;;;;;;;;;;;;5033623;28;20309;-60
2022/09/28 13:21:12;;;;;;;;;;;;;;;;;;5031296;28;19913;-59
2022/09/28 13:23:45;;;;;;;;;;;;;;;;;;5029602;28;19917;-60
2022/09/28 13:26:16;;;;;;;;;;;;;;;;;;5032421;28;19959;-60
2022/09/28 13:28:43;;;;;;;;;;;;;;;;;;5036718;28;19932;-59
2022/09/28 13:31:09;;;;;;;;;;;;;;;;;;5037400;28;19949;-60
2022/09/28 13:33:36;;;;;;;;;;;;;;;;;;5032926;28;19956;-59
2022/09/28 13:36:03;;;;;;;;;;;;;;;;;;5033845;28;19928;-60
2022/09/28 13:38:38;;;;;;;;;;;;;;;;;;5030721;28;19936;-60
2022/09/28 13:41:04;;;;;;;;;;;;;;;;;;5029422;28;19958;-59
2022/09/28 13:43:48;;;;;;;;;;;;;;;;;;5030648;28;19928;-59
2022/09/28 13:46:19;;;;;;;;;;;;;;;;;;5031194;28;20027;-57
2022/09/28 13:48:55;;;;;;;;;;;;;;;;;;5036533;28;19997;-59
2022/09/28 13:51:20;;;;;;;;;;;;;;;;;;5031494;28;19917;-59
2022/09/28 13:54:01;;;;;;;;;;;;;;;;;;5031398;28;19996;-60
2022/09/28 13:56:36;;;;;;;;;;;;;;;;;;5032366;28;19920;-60
2022/09/28 13:59:01;;;;;;;;;;;;;;;;;;5029557;28;19936;-59
2022/09/28 14:01:38;;;;;;;;;;;;;;;;;;5031241;28;20375;-59
2022/09/28 14:04:17;;;;;;;;;;;;;;;;;;5028757;28;20338;-60
2022/09/28 14:07:09;;;;;;;;;;;;;;;;;;5029445;28;19960;-59
2022/09/28 14:09:34;;;;;;;;;;;;;;;;;;5029462;28;19925;-60
2022/09/28 14:12:00;;;;;;;;;;;;;;;;;;5031798;28;20326;-59
2022/09/28 14:14:49;;;;;;;;;;;;;;;;;;5029567;28;20365;-60
2022/09/28 14:17:20;;;;;;;;;;;;;;;;;;5028031;28;20032;-60
2022/09/28 14:19:49;;;;;;;;;;;;;;;;;;5031066;28;19913;-60
2022/09/28 14:22:17;;;;;;;;;;;;;;;;;;5031098;28;19936;-59
2022/09/28 14:24:54;;;;;;;;;;;;;;;;;;5032501;28;20297;-60
2022/09/28 14:27:43;;;;;;;;;;;;;;;;;;5033012;28;19971;-61
2022/09/28 14:30:11;;;;;;;;;;;;;;;;;;5031741;28;19912;-61
2022/09/28 14:32:37;;;;;;;;;;;;;;;;;;5030712;28;19917;-60
2022/09/28 14:35:07;;;;;;;;;;;;;;;;;;5034798;28;19913;-60
2022/09/28 14:43:33;;;;;;;;;;;;;;;;;;5029766;28;19920;-60
2022/09/28 14:46:14;;;;;;;;;;;;;;;;;;5029000;28;19920;-60
2022/09/28 14:48:46;;;;;;;;;;;;;;;;;;5030716;28;19920;-60
2022/09/28 14:51:30;;;;;;;;;;;;;;;;;;5029155;28;19917;-60
2022/09/28 14:54:04;;;;;;;;;;;;;;;;;;5028202;28;20371;-60
2022/09/28 14:56:38;;;;;;;;;;;;;;;;;;5025173;28;20294;-61
2022/09/28 14:59:04;;;;;;;;;;;;;;;;;;5030355;28;19916;-60
2022/09/28 15:01:29;;;;;;;;;;;;;;;;;;5033216;28;19963;-60
2022/09/28 15:03:55;;;;;;;;;;;;;;;;;;5029152;28;19952;-60
2022/09/28 15:06:21;;;;;;;;;;;;;;;;;;5029338;28;20322;-60
2022/09/28 15:08:46;;;;;;;;;;;;;;;;;;5030487;28;19925;-60
2022/09/28 15:11:17;;;;;;;;;;;;;;;;;;5030502;28;20298;-60
2022/09/28 15:13:42;;;;;;;;;;;;;;;;;;5027749;28;19921;-60
2022/09/28 15:16:10;;;;;;;;;;;;;;;;;;5029451;28;19923;-61
2022/09/28 15:18:44;;;;;;;;;;;;;;;;;;5032479;28;19913;-60
2022/09/28 15:21:13;;;;;;;;;;;;;;;;;;5036446;28;19986;-60
2022/09/28 15:23:40;;;;;;;;;;;;;;;;;;5033290;28;19921;-59
2022/09/28 15:26:07;;;;;;;;;;;;;;;;;;5029382;28;19913;-60
2022/09/28 15:28:33;;;;;;;;;;;;;;;;;;5031576;28;20385;-59
2022/09/28 15:31:00;;;;;;;;;;;;;;;;;;5026985;28;19921;-60
2022/09/28 15:36:19;;;;;;;;;;;;;;;;;;5027020;28;19920;-60
2022/09/28 15:38:52;;;;;;;;;;;;;;;;;;5027778;28;19928;-61
2022/09/28 15:41:17;;;;;;;;;;;;;;;;;;5027147;28;19917;-61
2022/09/28 15:43:45;;;;;;;;;;;;;;;;;;5028436;28;19974;-60
2022/09/28 15:46:19;;;;;;;;;;;;;;;;;;5027128;28;19944;-61
2022/09/28 15:48:50;;;;;;;;;;;;;;;;;;5034301;28;19924;-61
2022/09/28 15:51:16;;;;;;;;;;;;;;;;;;5033413;28;19920;-61
2022/09/28 15:53:46;;;;;;;;;;;;;;;;;;5032748;28;19917;-61
2022/09/28 15:56:11;;;;;;;;;;;;;;;;;;5034869;28;19913;-61
2022/09/28 15:58:37;;;;;;;;;;;;;;;;;;5031532;28;19920;-61
2022/09/28 16:01:21;;;;;;;;;;;;;;;;;;5035020;28;19917;-61
2022/09/28 16:03:47;;;;;;;;;;;;;;;;;;5032169;28;19913;-61
2022/09/28 16:06:13;;;;;;;;;;;;;;;;;;5032730;28;19913;-61
2022/09/28 16:08:42;;;;;;;;;;;;;;;;;;5032432;28;19928;-61
2022/09/28 16:11:27;;;;;;;;;;;;;;;;;;5031641;28;19919;-61
2022/09/28 16:13:55;;;;;;;;;;;;;;;;;;5031402;28;19921;-60
2022/09/28 16:16:34;;;;;;;;;;;;;;;;;;5033108;28;19912;-60
2022/09/28 16:18:59;;;;;;;;;;;;;;;;;;5033247;28;20026;-60
2022/09/28 16:21:45;;;;;;;;;;;;;;;;;;5030850;28;20398;-59
2022/09/28 16:24:18;;;;;;;;;;;;;;;;;;5034046;28;20293;-60
2022/09/28 16:26:44;;;;;;;;;;;;;;;;;;5030432;28;19913;-60
2022/09/28 16:29:26;;;;;;;;;;;;;;;;;;5039074;28;19913;-61
2022/09/28 16:31:52;;;;;;;;;;;;;;;;;;5033345;28;19929;-61
2022/09/28 16:34:24;;;;;;;;;;;;;;;;;;5028704;28;20707;-61
2022/09/28 16:36:49;;;;;;;;;;;;;;;;;;5027945;28;19913;-60
2022/09/28 16:39:15;;;;;;;;;;;;;;;;;;5031068;28;19913;-61
2022/09/28 16:41:44;;;;;;;;;;;;;;;;;;5031357;28;20401;-60
2022/09/28 16:44:22;;;;;;;;;;;;;;;;;;5030055;28;19920;-61
2022/09/28 16:46:47;;;;;;;;;;;;;;;;;;5029490;28;20009;-60
2022/09/28 16:49:17;;;;;;;;;;;;;;;;;;5031639;28;19986;-61
2022/09/28 16:51:43;;;;;;;;;;;;;;;;;;5032547;28;19919;-60
2022/09/28 16:57:03;;;;;;;;;;;;;;;;;;5031031;28;19920;-60
2022/09/28 16:59:28;;;;;;;;;;;;;;;;;;5035526;28;20405;-61
2022/09/28 17:01:55;;;;;;;;;;;;;;;;;;5030834;28;19964;-59
2022/09/28 17:04:22;;;;;;;;;;;;;;;;;;5034038;28;20010;-63
2022/09/28 17:06:48;;;;;;;;;;;;;;;;;;5029218;28;20379;-62
2022/09/28 17:09:13;;;;;;;;;;;;;;;;;;5032060;28;19982;-62
2022/09/28 17:11:38;;;;;;;;;;;;;;;;;;5029570;28;20006;-60
2022/09/28 17:14:04;;;;;;;;;;;;;;;;;;5029858;28;19927;-60
2022/09/28 17:16:31;;;;;;;;;;;;;;;;;;5028523;28;20267;-61